sensor_id;sensor_type;location;lat;lon;timestamp;P1;durP1;ratioP1;P2;durP2;ratioP2
84925;SDS011;75187;48.190;16.294;2024-01-10T00:02:18;40.15;;;18.27;;
84925;SDS011;75187;48.190;16.294;2024-01-10T00:04:44;43.63;;;18.25;;
84925;SDS011;75187;48.190;16.294;2024-01-10T00:07:09;40.90;;;18.83;;
84925;SDS011;75187;48.190;16.294;2024-01-10T00:09:34;44.27;;;20.87;;
84925;SDS011;75187;48.190;16.294;2024-01-10T00:12:00;38.13;;;17.70;;
84925;SDS011;75187;48.190;16.294;2024-01-10T00:14:25;43.17;;;19.20;;
84925;SDS011;75187;48.190;16.294;2024-01-10T00:16:50;39.37;;;17.83;;
84925;SDS011;75187;48.190;16.294;2024-01-10T00:19:16;41.75;;;18.17;;
84925;SDS011;75187;48.190;16.294;2024-01-10T00:21:41;45.30;;;18.25;;
84925;SDS011;75187;48.190;16.294;2024-01-10T00:24:07;35.85;;;18.38;;
84925;SDS011;75187;48.190;16.294;2024-01-10T00:26:32;43.33;;;18.83;;
84925;SDS011;75187;48.190;16.294;2024-01-10T00:28:58;39.88;;;19.95;;
84925;SDS011;75187;48.190;16.294;2024-01-10T00:31:23;43.10;;;18.10;;
84925;SDS011;75187;48.190;16.294;2024-01-10T00:33:49;42.08;;;18.35;;
84925;SDS011;75187;48.190;16.294;2024-01-10T00:36:14;44.22;;;17.88;;
84925;SDS011;75187;48.190;16.294;2024-01-10T00:38:40;45.45;;;19.20;;
84925;SDS011;75187;48.190;16.294;2024-01-10T00:41:05;37.85;;;17.60;;
84925;SDS011;75187;48.190;16.294;2024-01-10T00:46:03;37.38;;;18.17;;
84925;SDS011;75187;48.190;16.294;2024-01-10T00:48:28;41.83;;;17.55;;
84925;SDS011;75187;48.190;16.294;2024-01-10T00:50:54;45.70;;;20.20;;
84925;SDS011;75187;48.190;16.294;2024-01-10T00:53:20;43.88;;;19.17;;
84925;SDS011;75187;48.190;16.294;2024-01-10T00:55:46;38.55;;;18.85;;
84925;SDS011;75187;48.190;16.294;2024-01-10T00:58:12;40.50;;;19.13;;
84925;SDS011;75187;48.190;16.294;2024-01-10T01:00:38;46.47;;;19.90;;
84925;SDS011;75187;48.190;16.294;2024-01-10T01:03:06;48.33;;;20.65;;
84925;SDS011;75187;48.190;16.294;2024-01-10T01:05:33;49.15;;;19.55;;
84925;SDS011;75187;48.190;16.294;2024-01-10T01:08:00;44.58;;;21.02;;
84925;SDS011;75187;48.190;16.294;2024-01-10T01:10:26;41.78;;;19.20;;
84925;SDS011;75187;48.190;16.294;2024-01-10T01:12:52;45.28;;;21.35;;
84925;SDS011;75187;48.190;16.294;2024-01-10T01:15:18;44.97;;;21.33;;
84925;SDS011;75187;48.190;16.294;2024-01-10T01:17:44;43.47;;;20.05;;
84925;SDS011;75187;48.190;16.294;2024-01-10T01:20:10;40.75;;;20.42;;
84925;SDS011;75187;48.190;16.294;2024-01-10T01:22:36;44.65;;;19.52;;
84925;SDS011;75187;48.190;16.294;2024-01-10T01:25:03;42.05;;;20.00;;
84925;SDS011;75187;48.190;16.294;2024-01-10T01:27:29;37.80;;;18.80;;
84925;SDS011;75187;48.190;16.294;2024-01-10T01:29:54;45.33;;;20.07;;
84925;SDS011;75187;48.190;16.294;2024-01-10T01:32:20;41.63;;;19.80;;
84925;SDS011;75187;48.190;16.294;2024-01-10T01:34:45;45.67;;;20.02;;
84925;SDS011;75187;48.190;16.294;2024-01-10T01:37:11;43.83;;;20.42;;
84925;SDS011;75187;48.190;16.294;2024-01-10T01:39:37;43.17;;;18.23;;
84925;SDS011;75187;48.190;16.294;2024-01-10T01:42:03;43.40;;;22.73;;
84925;SDS011;75187;48.190;16.294;2024-01-10T01:44:29;47.63;;;19.60;;
84925;SDS011;75187;48.190;16.294;2024-01-10T01:46:57;48.67;;;21.02;;
84925;SDS011;75187;48.190;16.294;2024-01-10T01:49:24;41.92;;;20.08;;
84925;SDS011;75187;48.190;16.294;2024-01-10T01:51:50;45.72;;;19.55;;
84925;SDS011;75187;48.190;16.294;2024-01-10T01:54:17;41.80;;;19.35;;
84925;SDS011;75187;48.190;16.294;2024-01-10T01:56:45;39.30;;;18.27;;
84925;SDS011;75187;48.190;16.294;2024-01-10T01:59:11;41.25;;;18.38;;
84925;SDS011;75187;48.190;16.294;2024-01-10T02:01:36;43.30;;;20.65;;
84925;SDS011;75187;48.190;16.294;2024-01-10T02:04:02;40.63;;;18.38;;
84925;SDS011;75187;48.190;16.294;2024-01-10T02:06:30;40.72;;;18.55;;
84925;SDS011;75187;48.190;16.294;2024-01-10T02:08:56;44.33;;;19.70;;
84925;SDS011;75187;48.190;16.294;2024-01-10T02:11:22;49.42;;;20.08;;
84925;SDS011;75187;48.190;16.294;2024-01-10T02:13:48;44.92;;;21.55;;
84925;SDS011;75187;48.190;16.294;2024-01-10T02:16:14;41.83;;;19.15;;
84925;SDS011;75187;48.190;16.294;2024-01-10T02:18:39;44.05;;;19.73;;
84925;SDS011;75187;48.190;16.294;2024-01-10T02:21:05;47.50;;;19.48;;
84925;SDS011;75187;48.190;16.294;2024-01-10T02:23:31;40.10;;;17.25;;
84925;SDS011;75187;48.190;16.294;2024-01-10T02:25:56;35.47;;;17.30;;
84925;SDS011;75187;48.190;16.294;2024-01-10T02:28:21;42.35;;;18.27;;
84925;SDS011;75187;48.190;16.294;2024-01-10T02:30:51;43.75;;;18.15;;
84925;SDS011;75187;48.190;16.294;2024-01-10T02:33:17;42.40;;;18.55;;
84925;SDS011;75187;48.190;16.294;2024-01-10T02:35:43;41.33;;;17.15;;
84925;SDS011;75187;48.190;16.294;2024-01-10T02:38:08;39.78;;;18.98;;
84925;SDS011;75187;48.190;16.294;2024-01-10T02:40:33;41.70;;;18.57;;
84925;SDS011;75187;48.190;16.294;2024-01-10T02:42:59;41.55;;;18.02;;
84925;SDS011;75187;48.190;16.294;2024-01-10T02:45:24;45.10;;;19.23;;
84925;SDS011;75187;48.190;16.294;2024-01-10T02:47:49;36.38;;;18.77;;
84925;SDS011;75187;48.190;16.294;2024-01-10T02:50:15;41.47;;;18.00;;
84925;SDS011;75187;48.190;16.294;2024-01-10T02:52:41;41.17;;;18.33;;
84925;SDS011;75187;48.190;16.294;2024-01-10T02:55:07;42.53;;;17.63;;
84925;SDS011;75187;48.190;16.294;2024-01-10T02:57:32;38.15;;;17.10;;
84925;SDS011;75187;48.190;16.294;2024-01-10T02:59:57;36.17;;;18.30;;
84925;SDS011;75187;48.190;16.294;2024-01-10T03:02:23;42.40;;;19.45;;
84925;SDS011;75187;48.190;16.294;2024-01-10T03:04:48;41.63;;;18.98;;
84925;SDS011;75187;48.190;16.294;2024-01-10T03:07:14;46.00;;;19.30;;
84925;SDS011;75187;48.190;16.294;2024-01-10T03:09:39;47.75;;;19.00;;
84925;SDS011;75187;48.190;16.294;2024-01-10T03:12:05;49.17;;;19.73;;
84925;SDS011;75187;48.190;16.294;2024-01-10T03:14:30;39.63;;;16.88;;
84925;SDS011;75187;48.190;16.294;2024-01-10T03:16:57;39.05;;;17.23;;
84925;SDS011;75187;48.190;16.294;2024-01-10T03:19:22;41.17;;;18.38;;
84925;SDS011;75187;48.190;16.294;2024-01-10T03:21:48;46.45;;;20.50;;
84925;SDS011;75187;48.190;16.294;2024-01-10T03:24:13;42.97;;;19.08;;
84925;SDS011;75187;48.190;16.294;2024-01-10T03:26:38;45.47;;;20.00;;
84925;SDS011;75187;48.190;16.294;2024-01-10T03:29:04;44.42;;;19.65;;
84925;SDS011;75187;48.190;16.294;2024-01-10T03:31:29;46.55;;;19.20;;
84925;SDS011;75187;48.190;16.294;2024-01-10T03:33:55;41.47;;;17.30;;
84925;SDS011;75187;48.190;16.294;2024-01-10T03:36:24;36.75;;;17.02;;
84925;SDS011;75187;48.190;16.294;2024-01-10T03:38:50;32.47;;;16.88;;
84925;SDS011;75187;48.190;16.294;2024-01-10T03:41:16;41.55;;;19.48;;
84925;SDS011;75187;48.190;16.294;2024-01-10T03:43:42;33.78;;;17.27;;
84925;SDS011;75187;48.190;16.294;2024-01-10T03:46:09;40.70;;;19.25;;
84925;SDS011;75187;48.190;16.294;2024-01-10T03:48:34;36.75;;;17.50;;
84925;SDS011;75187;48.190;16.294;2024-01-10T03:51:00;38.80;;;18.40;;
84925;SDS011;75187;48.190;16.294;2024-01-10T03:53:25;42.92;;;19.48;;
84925;SDS011;75187;48.190;16.294;2024-01-10T03:55:51;38.65;;;16.75;;
84925;SDS011;75187;48.190;16.294;2024-01-10T03:58:16;39.67;;;20.13;;
84925;SDS011;75187;48.190;16.294;2024-01-10T04:00:42;43.60;;;19.70;;
84925;SDS011;75187;48.190;16.294;2024-01-10T04:03:07;43.83;;;18.35;;
84925;SDS011;75187;48.190;16.294;2024-01-10T04:05:32;40.80;;;18.23;;
84925;SDS011;75187;48.190;16.294;2024-01-10T04:07:58;38.10;;;18.73;;
84925;SDS011;75187;48.190;16.294;2024-01-10T04:10:23;43.53;;;18.92;;
84925;SDS011;75187;48.190;16.294;2024-01-10T04:12:49;45.00;;;19.35;;
84925;SDS011;75187;48.190;16.294;2024-01-10T04:15:14;40.47;;;18.52;;
84925;SDS011;75187;48.190;16.294;2024-01-10T04:17:40;48.55;;;20.58;;
84925;SDS011;75187;48.190;16.294;2024-01-10T04:20:06;39.60;;;17.38;;
84925;SDS011;75187;48.190;16.294;2024-01-10T04:22:32;39.30;;;18.83;;
84925;SDS011;75187;48.190;16.294;2024-01-10T04:24:58;44.33;;;18.75;;
84925;SDS011;75187;48.190;16.294;2024-01-10T04:27:24;39.78;;;18.23;;
84925;SDS011;75187;48.190;16.294;2024-01-10T04:29:50;45.63;;;18.63;;
84925;SDS011;75187;48.190;16.294;2024-01-10T04:32:15;41.38;;;18.60;;
84925;SDS011;75187;48.190;16.294;2024-01-10T04:34:41;42.00;;;20.07;;
84925;SDS011;75187;48.190;16.294;2024-01-10T04:37:06;46.90;;;19.15;;
84925;SDS011;75187;48.190;16.294;2024-01-10T04:39:34;46.13;;;19.58;;
84925;SDS011;75187;48.190;16.294;2024-01-10T04:42:00;48.17;;;21.55;;
84925;SDS011;75187;48.190;16.294;2024-01-10T04:44:26;51.95;;;21.55;;
84925;SDS011;75187;48.190;16.294;2024-01-10T04:46:52;45.83;;;20.40;;
84925;SDS011;75187;48.190;16.294;2024-01-10T04:49:17;52.03;;;23.65;;
84925;SDS011;75187;48.190;16.294;2024-01-10T04:51:43;48.63;;;21.08;;
84925;SDS011;75187;48.190;16.294;2024-01-10T04:54:08;53.10;;;21.27;;
84925;SDS011;75187;48.190;16.294;2024-01-10T04:56:34;43.90;;;20.27;;
84925;SDS011;75187;48.190;16.294;2024-01-10T04:59:01;39.97;;;19.27;;
84925;SDS011;75187;48.190;16.294;2024-01-10T05:01:27;40.60;;;18.73;;
84925;SDS011;75187;48.190;16.294;2024-01-10T05:03:52;43.67;;;20.23;;
84925;SDS011;75187;48.190;16.294;2024-01-10T05:06:18;46.17;;;21.23;;
84925;SDS011;75187;48.190;16.294;2024-01-10T05:08:43;44.50;;;20.17;;
84925;SDS011;75187;48.190;16.294;2024-01-10T05:11:08;41.97;;;19.17;;
84925;SDS011;75187;48.190;16.294;2024-01-10T05:13:34;47.72;;;20.23;;
84925;SDS011;75187;48.190;16.294;2024-01-10T05:15:59;47.60;;;20.13;;
84925;SDS011;75187;48.190;16.294;2024-01-10T05:18:25;43.70;;;20.98;;
84925;SDS011;75187;48.190;16.294;2024-01-10T05:20:50;52.93;;;21.30;;
84925;SDS011;75187;48.190;16.294;2024-01-10T05:23:15;49.58;;;20.65;;
84925;SDS011;75187;48.190;16.294;2024-01-10T05:25:41;55.17;;;21.08;;
84925;SDS011;75187;48.190;16.294;2024-01-10T05:28:06;49.07;;;20.57;;
84925;SDS011;75187;48.190;16.294;2024-01-10T05:30:31;44.73;;;20.10;;
84925;SDS011;75187;48.190;16.294;2024-01-10T05:32:57;46.03;;;20.98;;
84925;SDS011;75187;48.190;16.294;2024-01-10T05:35:23;47.92;;;20.02;;
84925;SDS011;75187;48.190;16.294;2024-01-10T05:37:50;48.70;;;22.00;;
84925;SDS011;75187;48.190;16.294;2024-01-10T05:40:16;50.05;;;22.17;;
84925;SDS011;75187;48.190;16.294;2024-01-10T05:42:41;43.03;;;20.52;;
84925;SDS011;75187;48.190;16.294;2024-01-10T05:45:06;46.17;;;22.03;;
84925;SDS011;75187;48.190;16.294;2024-01-10T05:47:32;55.10;;;23.10;;
84925;SDS011;75187;48.190;16.294;2024-01-10T05:49:57;53.72;;;22.58;;
84925;SDS011;75187;48.190;16.294;2024-01-10T05:52:23;41.40;;;20.80;;
84925;SDS011;75187;48.190;16.294;2024-01-10T05:54:48;52.03;;;23.42;;
84925;SDS011;75187;48.190;16.294;2024-01-10T05:57:14;43.92;;;21.42;;
84925;SDS011;75187;48.190;16.294;2024-01-10T05:59:40;48.58;;;21.13;;
84925;SDS011;75187;48.190;16.294;2024-01-10T06:02:05;45.20;;;20.98;;
84925;SDS011;75187;48.190;16.294;2024-01-10T06:04:30;44.35;;;21.25;;
84925;SDS011;75187;48.190;16.294;2024-01-10T06:06:59;49.15;;;22.35;;
84925;SDS011;75187;48.190;16.294;2024-01-10T06:09:26;46.58;;;20.52;;
84925;SDS011;75187;48.190;16.294;2024-01-10T06:11:51;42.72;;;19.02;;
84925;SDS011;75187;48.190;16.294;2024-01-10T06:14:16;46.03;;;19.42;;
84925;SDS011;75187;48.190;16.294;2024-01-10T06:16:42;57.22;;;22.23;;
84925;SDS011;75187;48.190;16.294;2024-01-10T06:19:10;50.63;;;23.00;;
84925;SDS011;75187;48.190;16.294;2024-01-10T06:21:38;51.42;;;24.58;;
84925;SDS011;75187;48.190;16.294;2024-01-10T06:24:03;49.88;;;23.92;;
84925;SDS011;75187;48.190;16.294;2024-01-10T06:26:29;53.88;;;22.80;;
84925;SDS011;75187;48.190;16.294;2024-01-10T06:28:54;49.07;;;22.00;;
84925;SDS011;75187;48.190;16.294;2024-01-10T06:31:20;54.92;;;22.98;;
84925;SDS011;75187;48.190;16.294;2024-01-10T06:33:46;48.40;;;22.65;;
84925;SDS011;75187;48.190;16.294;2024-01-10T06:36:11;54.65;;;22.58;;
84925;SDS011;75187;48.190;16.294;2024-01-10T06:38:38;55.25;;;23.95;;
84925;SDS011;75187;48.190;16.294;2024-01-10T06:41:12;53.03;;;24.98;;
84925;SDS011;75187;48.190;16.294;2024-01-10T06:43:39;49.88;;;20.77;;
84925;SDS011;75187;48.190;16.294;2024-01-10T06:46:04;47.80;;;23.17;;
84925;SDS011;75187;48.190;16.294;2024-01-10T06:48:30;57.78;;;22.88;;
84925;SDS011;75187;48.190;16.294;2024-01-10T06:50:56;54.95;;;22.75;;
84925;SDS011;75187;48.190;16.294;2024-01-10T06:53:22;46.10;;;22.13;;
84925;SDS011;75187;48.190;16.294;2024-01-10T06:55:47;45.67;;;20.17;;
84925;SDS011;75187;48.190;16.294;2024-01-10T06:58:13;52.40;;;23.25;;
84925;SDS011;75187;48.190;16.294;2024-01-10T07:00:38;53.30;;;23.30;;
84925;SDS011;75187;48.190;16.294;2024-01-10T07:03:04;45.88;;;21.65;;
84925;SDS011;75187;48.190;16.294;2024-01-10T07:05:30;47.17;;;21.40;;
84925;SDS011;75187;48.190;16.294;2024-01-10T07:07:56;52.55;;;22.77;;
84925;SDS011;75187;48.190;16.294;2024-01-10T07:10:22;57.83;;;23.88;;
84925;SDS011;75187;48.190;16.294;2024-01-10T07:12:52;52.17;;;22.38;;
84925;SDS011;75187;48.190;16.294;2024-01-10T07:15:18;48.25;;;22.35;;
84925;SDS011;75187;48.190;16.294;2024-01-10T07:17:43;49.77;;;22.30;;
84925;SDS011;75187;48.190;16.294;2024-01-10T07:20:09;54.33;;;25.77;;
84925;SDS011;75187;48.190;16.294;2024-01-10T07:22:36;51.08;;;22.75;;
84925;SDS011;75187;48.190;16.294;2024-01-10T07:25:06;66.30;;;27.38;;
84925;SDS011;75187;48.190;16.294;2024-01-10T07:27:40;53.72;;;23.60;;
84925;SDS011;75187;48.190;16.294;2024-01-10T07:30:06;51.65;;;22.10;;
84925;SDS011;75187;48.190;16.294;2024-01-10T07:32:45;52.72;;;23.27;;
84925;SDS011;75187;48.190;16.294;2024-01-10T07:35:11;56.00;;;24.60;;
84925;SDS011;75187;48.190;16.294;2024-01-10T07:37:37;49.97;;;22.73;;
84925;SDS011;75187;48.190;16.294;2024-01-10T07:40:04;54.17;;;23.40;;
84925;SDS011;75187;48.190;16.294;2024-01-10T07:42:31;52.35;;;25.10;;
84925;SDS011;75187;48.190;16.294;2024-01-10T07:44:57;51.55;;;23.27;;
84925;SDS011;75187;48.190;16.294;2024-01-10T07:47:22;46.92;;;22.80;;
84925;SDS011;75187;48.190;16.294;2024-01-10T07:49:48;49.80;;;22.43;;
84925;SDS011;75187;48.190;16.294;2024-01-10T07:52:13;57.35;;;24.63;;
84925;SDS011;75187;48.190;16.294;2024-01-10T07:54:41;52.25;;;22.23;;
84925;SDS011;75187;48.190;16.294;2024-01-10T07:57:06;50.40;;;23.52;;
84925;SDS011;75187;48.190;16.294;2024-01-10T07:59:32;51.50;;;25.20;;
84925;SDS011;75187;48.190;16.294;2024-01-10T08:01:59;51.93;;;23.77;;
84925;SDS011;75187;48.190;16.294;2024-01-10T08:04:25;54.85;;;24.92;;
84925;SDS011;75187;48.190;16.294;2024-01-10T08:06:51;54.70;;;24.52;;
84925;SDS011;75187;48.190;16.294;2024-01-10T08:09:18;52.47;;;24.40;;
84925;SDS011;75187;48.190;16.294;2024-01-10T08:11:44;55.50;;;25.60;;
84925;SDS011;75187;48.190;16.294;2024-01-10T08:14:10;54.30;;;23.85;;
84925;SDS011;75187;48.190;16.294;2024-01-10T08:16:35;52.70;;;23.85;;
84925;SDS011;75187;48.190;16.294;2024-01-10T08:19:01;57.63;;;24.50;;
84925;SDS011;75187;48.190;16.294;2024-01-10T08:21:26;50.75;;;23.23;;
84925;SDS011;75187;48.190;16.294;2024-01-10T08:23:51;56.58;;;25.48;;
84925;SDS011;75187;48.190;16.294;2024-01-10T08:26:17;55.37;;;23.83;;
84925;SDS011;75187;48.190;16.294;2024-01-10T08:28:42;60.07;;;25.77;;
84925;SDS011;75187;48.190;16.294;2024-01-10T08:31:07;49.23;;;26.13;;
84925;SDS011;75187;48.190;16.294;2024-01-10T08:33:33;53.17;;;23.98;;
84925;SDS011;75187;48.190;16.294;2024-01-10T08:35:58;56.65;;;24.98;;
84925;SDS011;75187;48.190;16.294;2024-01-10T08:38:24;47.28;;;23.60;;
84925;SDS011;75187;48.190;16.294;2024-01-10T08:40:49;55.03;;;24.58;;
84925;SDS011;75187;48.190;16.294;2024-01-10T08:43:15;49.25;;;23.48;;
84925;SDS011;75187;48.190;16.294;2024-01-10T08:45:40;56.83;;;25.67;;
84925;SDS011;75187;48.190;16.294;2024-01-10T08:48:05;58.28;;;25.08;;
84925;SDS011;75187;48.190;16.294;2024-01-10T08:50:32;60.28;;;26.85;;
84925;SDS011;75187;48.190;16.294;2024-01-10T08:52:59;52.88;;;25.67;;
84925;SDS011;75187;48.190;16.294;2024-01-10T08:55:25;48.63;;;22.27;;
84925;SDS011;75187;48.190;16.294;2024-01-10T08:57:51;56.72;;;26.63;;
84925;SDS011;75187;48.190;16.294;2024-01-10T09:00:16;48.85;;;22.90;;
84925;SDS011;75187;48.190;16.294;2024-01-10T09:02:42;60.10;;;27.30;;
84925;SDS011;75187;48.190;16.294;2024-01-10T09:05:07;55.92;;;23.58;;
84925;SDS011;75187;48.190;16.294;2024-01-10T09:07:35;58.50;;;27.15;;
84925;SDS011;75187;48.190;16.294;2024-01-10T09:10:01;53.20;;;24.88;;
84925;SDS011;75187;48.190;16.294;2024-01-10T09:12:26;57.97;;;26.08;;
84925;SDS011;75187;48.190;16.294;2024-01-10T09:14:53;50.33;;;25.33;;
84925;SDS011;75187;48.190;16.294;2024-01-10T09:17:18;60.47;;;25.48;;
84925;SDS011;75187;48.190;16.294;2024-01-10T09:19:44;50.58;;;24.42;;
84925;SDS011;75187;48.190;16.294;2024-01-10T09:22:09;50.27;;;23.63;;
84925;SDS011;75187;48.190;16.294;2024-01-10T09:24:34;52.93;;;23.97;;
84925;SDS011;75187;48.190;16.294;2024-01-10T09:27:00;58.00;;;24.63;;
84925;SDS011;75187;48.190;16.294;2024-01-10T09:29:26;61.05;;;27.40;;
84925;SDS011;75187;48.190;16.294;2024-01-10T09:31:52;51.97;;;26.42;;
84925;SDS011;75187;48.190;16.294;2024-01-10T09:34:17;44.30;;;23.33;;
84925;SDS011;75187;48.190;16.294;2024-01-10T09:36:43;53.33;;;24.95;;
84925;SDS011;75187;48.190;16.294;2024-01-10T09:39:08;48.65;;;22.73;;
84925;SDS011;75187;48.190;16.294;2024-01-10T09:41:40;43.95;;;21.75;;
84925;SDS011;75187;48.190;16.294;2024-01-10T09:44:10;48.05;;;23.30;;
84925;SDS011;75187;48.190;16.294;2024-01-10T09:46:36;49.53;;;23.00;;
84925;SDS011;75187;48.190;16.294;2024-01-10T09:49:05;47.00;;;24.20;;
84925;SDS011;75187;48.190;16.294;2024-01-10T09:51:32;50.38;;;23.13;;
84925;SDS011;75187;48.190;16.294;2024-01-10T09:53:58;45.92;;;20.38;;
84925;SDS011;75187;48.190;16.294;2024-01-10T09:56:27;44.35;;;20.92;;
84925;SDS011;75187;48.190;16.294;2024-01-10T09:58:53;44.65;;;21.02;;
84925;SDS011;75187;48.190;16.294;2024-01-10T10:01:23;51.63;;;22.75;;
84925;SDS011;75187;48.190;16.294;2024-01-10T10:03:49;48.80;;;23.25;;
84925;SDS011;75187;48.190;16.294;2024-01-10T10:06:15;52.05;;;24.20;;
84925;SDS011;75187;48.190;16.294;2024-01-10T10:08:41;45.65;;;22.75;;
84925;SDS011;75187;48.190;16.294;2024-01-10T10:11:07;46.97;;;22.80;;
84925;SDS011;75187;48.190;16.294;2024-01-10T10:13:37;56.63;;;23.30;;
84925;SDS011;75187;48.190;16.294;2024-01-10T10:16:06;48.78;;;22.60;;
84925;SDS011;75187;48.190;16.294;2024-01-10T10:18:34;50.55;;;21.55;;
84925;SDS011;75187;48.190;16.294;2024-01-10T10:21:07;45.63;;;21.85;;
84925;SDS011;75187;48.190;16.294;2024-01-10T10:23:42;51.90;;;22.48;;
84925;SDS011;75187;48.190;16.294;2024-01-10T10:26:22;51.92;;;27.17;;
84925;SDS011;75187;48.190;16.294;2024-01-10T10:28:49;50.10;;;23.02;;
84925;SDS011;75187;48.190;16.294;2024-01-10T10:31:15;52.42;;;22.85;;
84925;SDS011;75187;48.190;16.294;2024-01-10T10:33:42;51.97;;;23.08;;
84925;SDS011;75187;48.190;16.294;2024-01-10T10:36:11;51.20;;;22.92;;
84925;SDS011;75187;48.190;16.294;2024-01-10T10:38:38;48.72;;;23.05;;
84925;SDS011;75187;48.190;16.294;2024-01-10T10:41:05;48.03;;;23.75;;
84925;SDS011;75187;48.190;16.294;2024-01-10T10:43:35;51.28;;;25.50;;
84925;SDS011;75187;48.190;16.294;2024-01-10T10:46:02;43.13;;;20.48;;
84925;SDS011;75187;48.190;16.294;2024-01-10T10:48:30;52.97;;;21.92;;
84925;SDS011;75187;48.190;16.294;2024-01-10T10:53:35;50.33;;;22.52;;
84925;SDS011;75187;48.190;16.294;2024-01-10T10:56:02;50.42;;;22.80;;
84925;SDS011;75187;48.190;16.294;2024-01-10T10:58:35;51.33;;;23.33;;
84925;SDS011;75187;48.190;16.294;2024-01-10T11:01:07;47.47;;;21.80;;
84925;SDS011;75187;48.190;16.294;2024-01-10T11:03:35;57.97;;;22.38;;
84925;SDS011;75187;48.190;16.294;2024-01-10T11:06:02;52.65;;;23.15;;
84925;SDS011;75187;48.190;16.294;2024-01-10T11:08:29;39.42;;;20.88;;
84925;SDS011;75187;48.190;16.294;2024-01-10T11:10:58;43.53;;;20.58;;
84925;SDS011;75187;48.190;16.294;2024-01-10T11:13:27;46.70;;;22.67;;
84925;SDS011;75187;48.190;16.294;2024-01-10T11:21:46;42.72;;;20.95;;
84925;SDS011;75187;48.190;16.294;2024-01-10T11:24:32;40.00;;;19.38;;
84925;SDS011;75187;48.190;16.294;2024-01-10T11:27:12;42.88;;;20.52;;
84925;SDS011;75187;48.190;16.294;2024-01-10T11:29:38;43.80;;;19.67;;
84925;SDS011;75187;48.190;16.294;2024-01-10T11:32:16;41.35;;;20.08;;
84925;SDS011;75187;48.190;16.294;2024-01-10T11:37:27;44.35;;;21.45;;
84925;SDS011;75187;48.190;16.294;2024-01-10T11:39:54;39.53;;;20.67;;
84925;SDS011;75187;48.190;16.294;2024-01-10T11:42:23;38.42;;;19.65;;
84925;SDS011;75187;48.190;16.294;2024-01-10T11:45:05;38.38;;;18.73;;
84925;SDS011;75187;48.190;16.294;2024-01-10T11:47:31;42.35;;;20.50;;
84925;SDS011;75187;48.190;16.294;2024-01-10T11:49:57;38.97;;;18.53;;
84925;SDS011;75187;48.190;16.294;2024-01-10T11:52:23;46.70;;;19.27;;
84925;SDS011;75187;48.190;16.294;2024-01-10T11:54:56;30.25;;;14.88;;
84925;SDS011;75187;48.190;16.294;2024-01-10T11:57:25;27.40;;;14.43;;
84925;SDS011;75187;48.190;16.294;2024-01-10T11:59:53;22.23;;;13.02;;
84925;SDS011;75187;48.190;16.294;2024-01-10T12:02:21;25.25;;;13.05;;
84925;SDS011;75187;48.190;16.294;2024-01-10T12:04:47;23.67;;;13.23;;
84925;SDS011;75187;48.190;16.294;2024-01-10T12:07:13;25.60;;;13.10;;
84925;SDS011;75187;48.190;16.294;2024-01-10T12:09:39;23.83;;;12.25;;
84925;SDS011;75187;48.190;16.294;2024-01-10T12:12:05;27.02;;;12.95;;
84925;SDS011;75187;48.190;16.294;2024-01-10T12:14:31;24.40;;;12.38;;
84925;SDS011;75187;48.190;16.294;2024-01-10T12:16:56;26.80;;;13.90;;
84925;SDS011;75187;48.190;16.294;2024-01-10T12:19:22;25.13;;;12.48;;
84925;SDS011;75187;48.190;16.294;2024-01-10T12:21:48;26.50;;;12.15;;
84925;SDS011;75187;48.190;16.294;2024-01-10T12:24:14;24.17;;;11.88;;
84925;SDS011;75187;48.190;16.294;2024-01-10T12:26:43;24.25;;;12.75;;
84925;SDS011;75187;48.190;16.294;2024-01-10T12:29:10;24.23;;;12.75;;
84925;SDS011;75187;48.190;16.294;2024-01-10T12:31:35;23.35;;;12.75;;
84925;SDS011;75187;48.190;16.294;2024-01-10T12:34:02;27.27;;;13.45;;
84925;SDS011;75187;48.190;16.294;2024-01-10T12:36:27;23.20;;;12.80;;
84925;SDS011;75187;48.190;16.294;2024-01-10T12:38:53;26.95;;;13.23;;
84925;SDS011;75187;48.190;16.294;2024-01-10T12:41:19;28.60;;;13.10;;
84925;SDS011;75187;48.190;16.294;2024-01-10T12:43:54;29.75;;;13.45;;
84925;SDS011;75187;48.190;16.294;2024-01-10T12:46:22;30.60;;;15.50;;
84925;SDS011;75187;48.190;16.294;2024-01-10T12:49:09;28.63;;;15.32;;
84925;SDS011;75187;48.190;16.294;2024-01-10T12:51:34;29.25;;;15.43;;
84925;SDS011;75187;48.190;16.294;2024-01-10T12:54:02;33.38;;;15.50;;
84925;SDS011;75187;48.190;16.294;2024-01-10T12:56:30;30.40;;;16.30;;
84925;SDS011;75187;48.190;16.294;2024-01-10T12:58:56;30.60;;;15.98;;
84925;SDS011;75187;48.190;16.294;2024-01-10T13:01:22;39.70;;;17.42;;
84925;SDS011;75187;48.190;16.294;2024-01-10T13:03:48;35.10;;;15.25;;
84925;SDS011;75187;48.190;16.294;2024-01-10T13:06:14;38.22;;;16.40;;
84925;SDS011;75187;48.190;16.294;2024-01-10T13:08:40;33.38;;;15.90;;
84925;SDS011;75187;48.190;16.294;2024-01-10T13:11:07;49.83;;;17.35;;
84925;SDS011;75187;48.190;16.294;2024-01-10T13:13:37;33.45;;;15.70;;
84925;SDS011;75187;48.190;16.294;2024-01-10T13:16:03;35.55;;;15.02;;
84925;SDS011;75187;48.190;16.294;2024-01-10T13:18:28;33.42;;;15.90;;
84925;SDS011;75187;48.190;16.294;2024-01-10T13:20:54;45.63;;;18.23;;
84925;SDS011;75187;48.190;16.294;2024-01-10T13:23:20;36.17;;;18.13;;
84925;SDS011;75187;48.190;16.294;2024-01-10T13:25:48;38.53;;;17.83;;
84925;SDS011;75187;48.190;16.294;2024-01-10T13:28:13;34.50;;;17.52;;
84925;SDS011;75187;48.190;16.294;2024-01-10T13:30:39;32.63;;;17.50;;
84925;SDS011;75187;48.190;16.294;2024-01-10T13:33:08;35.92;;;16.25;;
84925;SDS011;75187;48.190;16.294;2024-01-10T13:35:37;32.75;;;16.88;;
84925;SDS011;75187;48.190;16.294;2024-01-10T13:38:03;36.13;;;17.83;;
84925;SDS011;75187;48.190;16.294;2024-01-10T13:40:29;39.65;;;18.25;;
84925;SDS011;75187;48.190;16.294;2024-01-10T13:42:56;31.17;;;15.88;;
84925;SDS011;75187;48.190;16.294;2024-01-10T13:45:22;32.47;;;16.05;;
84925;SDS011;75187;48.190;16.294;2024-01-10T13:47:47;29.75;;;14.38;;
84925;SDS011;75187;48.190;16.294;2024-01-10T13:50:15;35.05;;;15.65;;
84925;SDS011;75187;48.190;16.294;2024-01-10T13:52:41;27.95;;;14.23;;
84925;SDS011;75187;48.190;16.294;2024-01-10T13:55:07;28.17;;;15.02;;
84925;SDS011;75187;48.190;16.294;2024-01-10T13:57:33;26.30;;;13.48;;
84925;SDS011;75187;48.190;16.294;2024-01-10T13:59:58;30.13;;;14.75;;
84925;SDS011;75187;48.190;16.294;2024-01-10T14:02:28;29.80;;;14.52;;
84925;SDS011;75187;48.190;16.294;2024-01-10T14:04:53;26.08;;;14.65;;
84925;SDS011;75187;48.190;16.294;2024-01-10T14:07:19;27.25;;;14.73;;
84925;SDS011;75187;48.190;16.294;2024-01-10T14:09:45;28.88;;;13.85;;
84925;SDS011;75187;48.190;16.294;2024-01-10T14:12:10;33.38;;;15.95;;
84925;SDS011;75187;48.190;16.294;2024-01-10T14:14:37;29.13;;;14.07;;
84925;SDS011;75187;48.190;16.294;2024-01-10T14:17:02;25.35;;;14.25;;
84925;SDS011;75187;48.190;16.294;2024-01-10T14:19:29;28.10;;;14.60;;